createdAt,value
2023-09-18T00:00:23.054Z,6.37
2023-09-18T00:02:55.694Z,5.70
2023-09-18T00:05:28.954Z,6.20
2023-09-18T00:07:57.753Z,6.57
2023-09-18T00:10:27.634Z,7.20
2023-09-18T00:12:57.061Z,6.33
2023-09-18T00:15:27.975Z,6.60
2023-09-18T00:17:55.804Z,7.53
2023-09-18T00:20:27.966Z,6.50
2023-09-18T00:22:56.833Z,7.00
2023-09-18T00:25:27.109Z,6.97
2023-09-18T00:27:54.875Z,7.50
2023-09-18T00:33:13.079Z,6.60
2023-09-18T00:35:42.384Z,6.33
2023-09-18T00:38:10.653Z,6.90
2023-09-18T00:40:38.311Z,6.97
2023-09-18T00:43:05.918Z,7.40
2023-09-18T00:45:33.197Z,7.47
2023-09-18T00:48:00.890Z,6.90
2023-09-18T00:50:32.985Z,6.60
2023-09-18T00:53:01.764Z,6.93
2023-09-18T00:55:31.181Z,6.73
2023-09-18T00:57:58.884Z,7.17
2023-09-18T01:00:27.035Z,7.50
2023-09-18T01:02:54.941Z,6.90
2023-09-18T01:05:25.318Z,7.43
2023-09-18T01:07:52.994Z,7.37
2023-09-18T01:10:24.109Z,6.90
2023-09-18T01:12:57.964Z,7.80
2023-09-18T01:15:35.470Z,7.47
2023-09-18T01:18:04.370Z,7.23
2023-09-18T01:20:35.452Z,7.60
2023-09-18T01:23:03.588Z,8.43
2023-09-18T01:25:35.732Z,8.17
2023-09-18T01:28:05.692Z,7.10
2023-09-18T01:30:36.107Z,7.53
2023-09-18T01:33:05.613Z,6.70
2023-09-18T01:35:35.459Z,7.07
2023-09-18T01:38:06.066Z,8.00
2023-09-18T01:40:34.093Z,7.30
2023-09-18T01:43:01.880Z,6.70
2023-09-18T01:45:29.495Z,7.37
2023-09-18T01:47:57.314Z,8.13
2023-09-18T01:50:27.765Z,7.50
2023-09-18T01:52:55.371Z,7.87
2023-09-18T01:55:25.314Z,7.40
2023-09-18T01:57:52.994Z,7.53
2023-09-18T02:00:23.400Z,7.30
2023-09-18T02:03:01.875Z,8.17
2023-09-18T02:05:38.517Z,8.13
2023-09-18T02:08:08.217Z,7.70
2023-09-18T02:10:35.484Z,7.50
2023-09-18T02:13:02.636Z,7.50
2023-09-18T02:15:33.538Z,7.67
2023-09-18T02:18:00.674Z,7.93
2023-09-18T02:20:32.372Z,7.40
2023-09-18T02:22:59.384Z,8.20
2023-09-18T02:25:27.195Z,8.57
2023-09-18T02:27:55.453Z,8.20
2023-09-18T02:30:22.565Z,7.80
2023-09-18T02:32:49.627Z,7.47
2023-09-18T02:35:16.874Z,8.07
2023-09-18T02:37:48.560Z,8.10
2023-09-18T02:40:16.021Z,8.10
2023-09-18T02:42:43.054Z,7.77
2023-09-18T02:45:13.058Z,8.30
2023-09-18T02:47:43.465Z,8.33
2023-09-18T02:50:13.514Z,8.77
2023-09-18T02:52:43.038Z,7.77
2023-09-18T02:55:11.498Z,8.27
2023-09-18T02:57:41.492Z,8.10
2023-09-18T03:00:09.724Z,7.83
2023-09-18T03:02:36.925Z,7.90
2023-09-18T03:05:05.033Z,7.43
2023-09-18T03:07:36.573Z,7.13
2023-09-18T03:10:03.843Z,7.53
2023-09-18T03:12:30.911Z,7.97
2023-09-18T03:15:00.935Z,8.73
2023-09-18T03:17:28.009Z,7.80
2023-09-18T03:19:55.257Z,8.70
2023-09-18T03:22:22.176Z,7.77
2023-09-18T03:24:49.296Z,8.57
2023-09-18T03:27:16.856Z,9.10
2023-09-18T03:29:43.982Z,9.30
2023-09-18T03:32:13.733Z,8.40
2023-09-18T03:34:43.346Z,8.90
2023-09-18T03:37:12.886Z,7.80
2023-09-18T03:39:40.062Z,9.03
2023-09-18T03:42:10.332Z,8.40
2023-09-18T03:44:40.220Z,8.30
2023-09-18T03:47:09.331Z,8.57
2023-09-18T03:49:41.247Z,9.00
2023-09-18T03:52:10.732Z,8.40
2023-09-18T03:54:37.904Z,9.03
2023-09-18T03:57:07.310Z,9.10
2023-09-18T03:59:36.742Z,8.90
2023-09-18T04:02:04.857Z,9.20
2023-09-18T04:04:34.676Z,9.27
2023-09-18T04:07:06.879Z,9.30
2023-09-18T04:09:37.074Z,8.87
2023-09-18T04:12:08.496Z,9.00
2023-09-18T04:14:37.891Z,8.97
2023-09-18T04:17:05.427Z,8.63
2023-09-18T04:19:37.482Z,8.40
2023-09-18T04:22:06.949Z,9.07
2023-09-18T04:24:38.983Z,8.73
2023-09-18T04:27:06.145Z,8.63
2023-09-18T04:29:33.322Z,8.80
2023-09-18T04:32:05.575Z,8.83
2023-09-18T04:34:32.769Z,9.50
2023-09-18T04:36:59.869Z,8.73
2023-09-18T04:39:31.607Z,9.20
2023-09-18T04:41:58.651Z,9.20
2023-09-18T04:44:33.866Z,10.27
2023-09-18T04:47:07.229Z,8.87
2023-09-18T04:49:34.350Z,11.50
2023-09-18T04:52:01.515Z,12.83
2023-09-18T04:54:35.898Z,10.50
2023-09-18T04:57:06.839Z,10.50
2023-09-18T04:59:34.044Z,8.47
2023-09-18T05:02:01.140Z,9.00
2023-09-18T05:04:33.263Z,8.87
2023-09-18T05:07:02.689Z,11.07
2023-09-18T05:09:33.751Z,10.47
2023-09-18T05:12:03.606Z,9.93
2023-09-18T05:14:40.694Z,9.73
2023-09-18T05:17:14.666Z,8.03
2023-09-18T05:19:44.837Z,9.60
2023-09-18T05:22:15.031Z,8.87
2023-09-18T05:24:47.570Z,10.50
2023-09-18T05:27:14.698Z,9.20
2023-09-18T05:29:44.699Z,9.90
2023-09-18T05:32:11.922Z,9.07
2023-09-18T05:34:38.967Z,8.73
2023-09-18T05:37:08.859Z,9.00
2023-09-18T05:39:35.982Z,8.93
2023-09-18T05:42:05.966Z,9.17
2023-09-18T05:44:33.149Z,9.40
2023-09-18T05:47:00.367Z,8.90
2023-09-18T05:49:30.133Z,8.63
2023-09-18T05:51:57.189Z,9.10
2023-09-18T05:54:24.321Z,8.30
2023-09-18T05:56:56.013Z,9.03
2023-09-18T05:59:25.466Z,8.40
2023-09-18T06:01:55.302Z,8.10
2023-09-18T06:04:22.647Z,8.77
2023-09-18T06:06:49.703Z,7.93
2023-09-18T06:09:17.354Z,8.30
2023-09-18T06:11:46.709Z,8.30
2023-09-18T06:14:13.822Z,7.13
2023-09-18T06:16:42.906Z,7.17
2023-09-18T06:19:14.142Z,7.03
2023-09-18T06:21:46.346Z,7.13
2023-09-18T06:24:13.677Z,7.13
2023-09-18T06:26:43.474Z,6.90
2023-09-18T06:29:12.964Z,7.30
2023-09-18T06:31:40.281Z,6.43
2023-09-18T06:34:09.966Z,6.97
2023-09-18T06:36:37.147Z,6.53
2023-09-18T06:39:09.462Z,6.97
2023-09-18T06:41:40.402Z,6.87
2023-09-18T06:44:08.004Z,6.80
2023-09-18T06:46:42.451Z,6.03
2023-09-18T06:49:12.429Z,6.30
2023-09-18T06:51:43.823Z,6.63
2023-09-18T06:54:13.876Z,6.80
2023-09-18T06:56:45.580Z,6.87
2023-09-18T06:59:14.934Z,6.77
2023-09-18T07:01:43.717Z,6.43
2023-09-18T07:04:16.342Z,7.53
2023-09-18T07:06:47.806Z,6.23
2023-09-18T07:09:15.156Z,7.23
2023-09-18T07:11:42.304Z,6.40
2023-09-18T07:14:09.606Z,6.57
2023-09-18T07:16:37.113Z,6.23
2023-09-18T07:19:07.085Z,7.03
2023-09-18T07:21:36.408Z,6.90
2023-09-18T07:24:03.667Z,6.73
2023-09-18T07:26:33.101Z,6.47
2023-09-18T07:29:03.092Z,6.77
2023-09-18T07:31:30.273Z,7.03
2023-09-18T07:33:57.497Z,5.70
2023-09-18T07:36:24.814Z,6.33
2023-09-18T07:38:52.120Z,5.97
2023-09-18T07:41:20.911Z,6.60
2023-09-18T07:43:48.127Z,6.00
2023-09-18T07:46:17.575Z,6.00
2023-09-18T07:48:47.388Z,5.70
2023-09-18T07:51:15.034Z,5.80
2023-09-18T07:53:44.606Z,5.80
2023-09-18T07:56:14.344Z,5.80
2023-09-18T07:58:41.586Z,5.97
2023-09-18T08:01:11.574Z,5.50
2023-09-18T08:03:41.486Z,6.73
2023-09-18T08:06:12.717Z,5.67
2023-09-18T08:08:41.028Z,5.67
2023-09-18T08:11:14.019Z,6.40
2023-09-18T08:13:43.909Z,5.57
2023-09-18T08:16:11.236Z,6.30
2023-09-18T08:18:42.359Z,6.37
2023-09-18T08:21:12.205Z,5.97
2023-09-18T08:23:42.081Z,6.30
2023-09-18T08:26:09.881Z,5.60
2023-09-18T08:28:44.788Z,5.90
2023-09-18T08:31:17.737Z,6.13
2023-09-18T08:33:45.355Z,5.53
2023-09-18T08:36:17.861Z,6.10
2023-09-18T08:38:48.994Z,6.03
2023-09-18T08:41:22.180Z,5.70
2023-09-18T08:43:50.971Z,5.60
2023-09-18T08:46:22.120Z,6.07
2023-09-18T08:48:53.708Z,5.80
2023-09-18T08:51:24.296Z,6.13
2023-09-18T08:53:52.196Z,5.73
2023-09-18T08:56:22.925Z,6.60
2023-09-18T08:58:50.697Z,6.37
2023-09-18T09:01:19.433Z,6.27
2023-09-18T09:03:53.818Z,6.30
2023-09-18T09:06:21.450Z,6.23
2023-09-18T09:08:51.138Z,6.33
2023-09-18T09:11:26.149Z,6.43
2023-09-18T09:14:19.191Z,6.30
2023-09-18T09:16:51.148Z,7.30
2023-09-18T09:19:22.574Z,6.20
2023-09-18T09:21:52.442Z,7.10
2023-09-18T09:24:43.501Z,6.50
2023-09-18T09:27:16.321Z,6.20
2023-09-18T09:29:59.284Z,6.60
2023-09-18T09:32:35.776Z,7.00
2023-09-18T09:35:08.115Z,5.60
2023-09-18T09:37:36.226Z,5.80
2023-09-18T09:40:13.386Z,5.87
2023-09-18T09:42:42.284Z,6.27
2023-09-18T09:45:19.797Z,5.57
2023-09-18T09:47:47.698Z,5.60
2023-09-18T09:50:19.976Z,5.90
2023-09-18T09:52:52.348Z,6.10
2023-09-18T09:55:25.631Z,5.80
2023-09-18T09:58:04.634Z,5.90
2023-09-18T10:00:47.320Z,5.93
2023-09-18T10:03:23.212Z,6.10
2023-09-18T10:05:56.409Z,5.27
2023-09-18T10:08:31.795Z,6.17
2023-09-18T10:11:13.568Z,5.90
2023-09-18T10:13:52.899Z,6.27
2023-09-18T10:16:28.777Z,6.60
2023-09-18T10:19:26.792Z,6.10
2023-09-18T10:22:23.502Z,6.60
2023-09-18T10:24:56.610Z,5.80
2023-09-18T10:27:27.661Z,5.93
2023-09-18T10:29:56.061Z,6.23
2023-09-18T10:32:29.831Z,6.73
2023-09-18T10:34:57.122Z,5.47
2023-09-18T10:37:27.539Z,7.47
2023-09-18T10:39:56.234Z,5.80
2023-09-18T10:42:27.702Z,5.77
2023-09-18T10:44:57.723Z,6.10
2023-09-18T10:47:25.398Z,6.07
2023-09-18T10:49:53.014Z,6.83
2023-09-18T10:52:22.440Z,6.47
2023-09-18T10:54:49.704Z,5.50
2023-09-18T10:57:17.547Z,6.50
2023-09-18T10:59:48.840Z,6.07
2023-09-18T11:02:17.843Z,5.07
2023-09-18T11:04:48.713Z,6.00
2023-09-18T11:07:24.221Z,5.73
2023-09-18T11:09:56.865Z,6.17
2023-09-18T11:12:46.769Z,5.80
2023-09-18T11:15:33.240Z,5.87
2023-09-18T11:18:09.038Z,5.67
2023-09-18T11:20:40.149Z,5.83
2023-09-18T11:23:16.761Z,5.40
2023-09-18T11:25:49.659Z,5.60
2023-09-18T11:28:26.083Z,5.90
2023-09-18T11:31:03.221Z,6.30
2023-09-18T11:33:41.959Z,5.87
2023-09-18T11:36:15.630Z,4.73
2023-09-18T11:39:05.256Z,5.60
2023-09-18T11:41:41.172Z,5.20
2023-09-18T11:44:20.712Z,5.30
2023-09-18T11:46:53.468Z,5.50
2023-09-18T11:49:29.527Z,5.70
2023-09-18T11:52:03.538Z,4.57
2023-09-18T11:54:35.573Z,4.70
2023-09-18T11:57:06.563Z,5.73
2023-09-18T11:59:45.201Z,5.57
2023-09-18T12:02:37.092Z,5.30
2023-09-18T12:05:12.951Z,4.67
2023-09-18T12:07:45.985Z,4.60
2023-09-18T12:10:16.495Z,5.00
2023-09-18T12:12:44.705Z,4.20
2023-09-18T12:15:21.248Z,4.53
2023-09-18T12:17:57.844Z,4.20
2023-09-18T12:20:27.772Z,4.30
2023-09-18T12:22:54.877Z,4.20
2023-09-18T12:25:23.678Z,5.23
2023-09-18T12:28:00.543Z,4.23
2023-09-18T12:30:30.234Z,3.20
2023-09-18T12:33:01.331Z,3.60
2023-09-18T12:35:31.286Z,3.20
2023-09-18T12:38:06.068Z,3.73
2023-09-18T12:40:34.471Z,3.47
2023-09-18T12:43:02.317Z,3.33
2023-09-18T12:45:31.141Z,2.97
2023-09-18T12:47:59.864Z,3.30
2023-09-18T12:50:30.014Z,3.40
2023-09-18T12:53:18.448Z,4.50
2023-09-18T12:55:47.933Z,3.17
2023-09-18T12:58:15.267Z,3.03
2023-09-18T13:00:52.019Z,3.10
2023-09-18T13:03:19.958Z,3.43
2023-09-18T13:05:48.266Z,3.80
2023-09-18T13:08:17.581Z,2.63
2023-09-18T13:10:53.930Z,3.37
2023-09-18T13:13:24.921Z,2.90
2023-09-18T13:16:00.942Z,3.00
2023-09-18T13:18:28.696Z,3.07
2023-09-18T13:20:56.319Z,2.70
2023-09-18T13:23:30.752Z,2.50
2023-09-18T13:26:06.073Z,2.90
2023-09-18T13:28:36.138Z,2.77
2023-09-18T13:31:07.878Z,2.40
2023-09-18T13:33:45.982Z,2.30
2023-09-18T13:36:13.562Z,2.30
2023-09-18T13:38:40.835Z,2.10
2023-09-18T13:41:08.290Z,2.63
2023-09-18T13:43:38.921Z,2.30
2023-09-18T13:46:06.546Z,2.10
2023-09-18T13:48:34.464Z,2.93
2023-09-18T13:51:03.081Z,2.40
2023-09-18T13:53:31.051Z,2.67
2023-09-18T13:56:00.254Z,2.60
2023-09-18T13:58:30.094Z,2.20
2023-09-18T14:00:58.413Z,2.40
2023-09-18T14:03:27.782Z,2.70
2023-09-18T14:05:55.473Z,3.17
2023-09-18T14:08:28.116Z,2.53
2023-09-18T14:10:55.347Z,2.60
2023-09-18T14:13:27.000Z,2.77
2023-09-18T14:15:57.184Z,3.00
2023-09-18T14:18:26.931Z,3.50
2023-09-18T14:20:54.309Z,3.03
2023-09-18T14:23:25.970Z,2.83
2023-09-18T14:25:53.171Z,2.63
2023-09-18T14:28:20.510Z,3.20
2023-09-18T14:30:47.604Z,2.40
2023-09-18T14:33:15.985Z,2.77
2023-09-18T14:35:45.559Z,3.10
2023-09-18T14:38:14.995Z,2.90
2023-09-18T14:40:44.985Z,2.60
2023-09-18T14:43:12.765Z,2.30
2023-09-18T14:45:41.468Z,3.30
2023-09-18T14:48:08.700Z,3.00
2023-09-18T14:50:35.894Z,2.73
2023-09-18T14:53:05.002Z,2.70
2023-09-18T14:55:32.209Z,3.03
2023-09-18T14:58:07.127Z,3.17
2023-09-18T15:00:36.961Z,2.97
2023-09-18T15:03:07.076Z,3.40
2023-09-18T15:05:43.006Z,3.53
2023-09-18T15:08:10.240Z,2.67
2023-09-18T15:10:37.312Z,3.60
2023-09-18T15:13:11.240Z,3.57
2023-09-18T15:15:42.684Z,3.20
2023-09-18T15:18:09.985Z,3.17
2023-09-18T15:20:37.509Z,4.17
2023-09-18T15:23:05.022Z,3.30
2023-09-18T15:25:39.055Z,3.13
2023-09-18T15:28:06.707Z,2.87
2023-09-18T15:30:54.953Z,3.87
2023-09-18T15:33:26.643Z,3.37
2023-09-18T15:36:03.039Z,3.07
2023-09-18T15:38:33.092Z,3.23
2023-09-18T15:41:00.184Z,3.20
2023-09-18T15:43:33.564Z,3.23
2023-09-18T15:46:02.670Z,2.40
2023-09-18T15:48:34.494Z,3.13
2023-09-18T15:51:01.792Z,2.90
2023-09-18T15:53:28.720Z,2.43
2023-09-18T15:55:55.818Z,3.27
2023-09-18T15:58:25.226Z,3.17
2023-09-18T16:00:52.501Z,2.77
2023-09-18T16:03:20.624Z,3.33
2023-09-18T16:05:53.192Z,3.17
2023-09-18T16:08:23.067Z,2.67
2023-09-18T16:10:53.003Z,3.40
2023-09-18T16:13:20.264Z,3.20
2023-09-18T16:15:47.845Z,3.60
2023-09-18T16:18:15.113Z,3.20
2023-09-18T16:20:42.366Z,3.10
2023-09-18T16:23:13.110Z,3.13
2023-09-18T16:25:40.201Z,2.60
2023-09-18T16:28:10.230Z,2.80
2023-09-18T16:30:38.472Z,3.17
2023-09-18T16:33:09.236Z,2.63
2023-09-18T16:35:38.322Z,2.47
2023-09-18T16:38:05.467Z,2.70
2023-09-18T16:40:34.762Z,3.50
2023-09-18T16:43:07.628Z,3.33
2023-09-18T16:45:34.956Z,2.50
2023-09-18T16:48:07.623Z,2.80
2023-09-18T16:50:34.734Z,2.43
2023-09-18T16:53:02.216Z,2.63
2023-09-18T16:55:29.438Z,3.40
2023-09-18T16:57:58.792Z,2.63
2023-09-18T17:00:26.576Z,2.80
2023-09-18T17:02:59.447Z,3.40
2023-09-18T17:05:26.956Z,3.33
2023-09-18T17:07:56.755Z,3.30
2023-09-18T17:10:24.569Z,3.37
2023-09-18T17:12:52.243Z,2.73
2023-09-18T17:15:34.398Z,2.20
2023-09-18T17:18:06.374Z,2.87
2023-09-18T17:20:34.246Z,3.17
2023-09-18T17:23:09.795Z,3.03
2023-09-18T17:25:51.997Z,3.07
2023-09-18T17:28:37.459Z,3.17
2023-09-18T17:31:10.003Z,3.50
2023-09-18T17:33:39.426Z,3.43
2023-09-18T17:36:17.705Z,3.50
2023-09-18T17:38:47.503Z,3.37
2023-09-18T17:41:21.131Z,3.20
2023-09-18T17:44:08.150Z,3.63
2023-09-18T17:46:39.606Z,3.40
2023-09-18T17:49:34.188Z,3.23
2023-09-18T17:52:31.205Z,4.10
2023-09-18T17:55:43.046Z,3.40
2023-09-18T17:58:12.505Z,2.83
2023-09-18T18:00:42.812Z,3.07
2023-09-18T18:03:13.535Z,2.87
2023-09-18T18:05:50.726Z,3.03
2023-09-18T18:08:23.618Z,3.43
2023-09-18T18:10:51.362Z,3.00
2023-09-18T18:13:18.533Z,2.90
2023-09-18T18:15:50.104Z,3.20
2023-09-18T18:18:17.298Z,3.00
2023-09-18T18:20:51.000Z,3.60
2023-09-18T18:23:20.516Z,3.10
2023-09-18T18:25:51.039Z,3.00
2023-09-18T18:28:18.090Z,2.90
2023-09-18T18:30:50.119Z,2.93
2023-09-18T18:33:20.282Z,2.60
2023-09-18T18:35:47.792Z,3.10
2023-09-18T18:38:15.010Z,3.20
2023-09-18T18:40:46.947Z,2.80
2023-09-18T18:43:18.868Z,3.40
2023-09-18T18:45:54.746Z,3.43
2023-09-18T18:48:27.426Z,2.53
2023-09-18T18:51:04.102Z,2.93
2023-09-18T18:53:31.685Z,2.80
2023-09-18T18:55:58.848Z,3.20
2023-09-18T18:58:26.500Z,2.50
2023-09-18T19:00:58.055Z,3.33
2023-09-18T19:03:25.333Z,2.57
2023-09-18T19:05:55.793Z,2.37
2023-09-18T19:08:27.460Z,2.80
2023-09-18T19:10:57.287Z,3.00
2023-09-18T19:13:24.390Z,3.20
2023-09-18T19:15:51.543Z,2.90
2023-09-18T19:18:21.390Z,3.10
2023-09-18T19:20:51.376Z,2.90
2023-09-18T19:23:21.170Z,3.33
2023-09-18T19:25:51.733Z,2.63
2023-09-18T19:28:21.911Z,2.93
2023-09-18T19:30:54.512Z,3.20
2023-09-18T19:33:22.221Z,2.90
2023-09-18T19:35:55.877Z,3.03
2023-09-18T19:38:28.827Z,3.37
2023-09-18T19:40:56.214Z,2.90
2023-09-18T19:43:25.629Z,2.80
2023-09-18T19:45:55.108Z,3.07
2023-09-18T19:48:22.353Z,3.00
2023-09-18T19:50:51.601Z,3.20
2023-09-18T19:53:19.264Z,2.97
2023-09-18T19:55:49.007Z,3.40
2023-09-18T19:58:18.590Z,3.07
2023-09-18T20:00:45.825Z,3.00
2023-09-18T20:03:17.466Z,3.17
2023-09-18T20:05:44.979Z,3.87
2023-09-18T20:08:17.156Z,3.90
2023-09-18T20:10:46.504Z,3.10
2023-09-18T20:13:15.894Z,2.87
2023-09-18T20:15:43.161Z,3.27
2023-09-18T20:18:10.798Z,2.50
2023-09-18T20:20:38.320Z,3.20
2023-09-18T20:23:05.448Z,2.87
2023-09-18T20:25:32.630Z,2.90
2023-09-18T20:27:59.714Z,2.50
2023-09-18T20:30:30.342Z,2.87
2023-09-18T20:32:58.219Z,2.90
2023-09-18T20:35:26.839Z,3.10
2023-09-18T20:37:53.933Z,3.10
2023-09-18T20:40:23.532Z,3.10
2023-09-18T20:42:50.621Z,3.10
2023-09-18T20:45:19.932Z,3.00
2023-09-18T20:47:47.216Z,3.70
2023-09-18T20:50:15.280Z,3.43
2023-09-18T20:52:46.916Z,2.80
2023-09-18T20:55:14.111Z,3.10
2023-09-18T20:57:41.336Z,2.77
2023-09-18T21:00:11.296Z,3.10
2023-09-18T21:02:46.253Z,2.60
2023-09-18T21:05:17.751Z,2.20
2023-09-18T21:07:48.074Z,1.87
2023-09-18T21:10:15.230Z,1.63
2023-09-18T21:12:42.419Z,1.90
2023-09-18T21:15:10.098Z,1.77
2023-09-18T21:17:40.581Z,1.90
2023-09-18T21:20:10.384Z,1.83
2023-09-18T21:22:40.373Z,1.80
2023-09-18T21:25:09.093Z,1.73
2023-09-18T21:27:36.549Z,1.47
2023-09-18T21:30:04.462Z,1.80
2023-09-18T21:32:31.660Z,2.40
2023-09-18T21:34:58.837Z,2.10
2023-09-18T21:37:26.050Z,2.03
2023-09-18T21:39:54.858Z,1.67
2023-09-18T21:42:22.190Z,1.50
2023-09-18T21:44:54.832Z,1.40
2023-09-18T21:47:22.046Z,1.40
2023-09-18T21:49:51.763Z,1.30
2023-09-18T21:52:21.351Z,0.90
2023-09-18T21:54:51.185Z,1.23
2023-09-18T21:57:18.653Z,1.20
2023-09-18T21:59:45.809Z,1.10
2023-09-18T22:02:15.936Z,1.10
2023-09-18T22:04:43.157Z,0.93
2023-09-18T22:07:13.309Z,1.20
2023-09-18T22:09:45.709Z,0.80
2023-09-18T22:12:14.611Z,1.63
2023-09-18T22:14:42.114Z,1.27
2023-09-18T22:17:11.705Z,1.00
2023-09-18T22:19:38.788Z,1.00
2023-09-18T22:22:10.847Z,1.20
2023-09-18T22:24:38.595Z,1.10
2023-09-18T22:27:07.947Z,0.90
2023-09-18T22:29:35.238Z,1.17
2023-09-18T22:32:02.713Z,1.03
2023-09-18T22:34:30.882Z,1.00
2023-09-18T22:36:58.149Z,1.20
2023-09-18T22:39:49.652Z,1.00
2023-09-18T22:42:16.637Z,1.30
2023-09-18T22:45:40.031Z,1.10
2023-09-18T22:49:03.376Z,1.13
2023-09-18T22:52:26.961Z,1.37
2023-09-18T22:54:54.871Z,1.37
2023-09-18T22:57:30.112Z,1.80
2023-09-18T23:00:02.936Z,1.50
2023-09-18T23:02:30.624Z,1.70
2023-09-18T23:04:59.738Z,1.57
2023-09-18T23:07:27.021Z,1.57
2023-09-18T23:09:58.612Z,1.50
2023-09-18T23:12:29.756Z,1.80
2023-09-18T23:14:57.409Z,1.37
2023-09-18T23:17:25.189Z,1.70
2023-09-18T23:19:55.593Z,2.10
2023-09-18T23:22:27.711Z,1.80
2023-09-18T23:24:58.768Z,1.60
2023-09-18T23:27:29.232Z,1.40
2023-09-18T23:29:59.699Z,1.70
2023-09-18T23:32:26.912Z,1.80
2023-09-18T23:35:00.789Z,1.90
2023-09-18T23:37:28.532Z,2.17
2023-09-18T23:39:57.582Z,1.63
2023-09-18T23:42:27.591Z,2.07
2023-09-18T23:44:55.845Z,2.00
2023-09-18T23:47:23.008Z,2.10
2023-09-18T23:49:54.678Z,1.80
2023-09-18T23:52:22.362Z,1.63
2023-09-18T23:54:49.668Z,2.27
2023-09-18T23:57:21.536Z,2.00
2023-09-18T23:59:52.160Z,2.60
